createdAt,value
2019-03-11T00:00:29.524Z,93.70
2019-03-11T00:02:58.102Z,94.40
2019-03-11T00:05:26.370Z,92.00
2019-03-11T00:07:54.975Z,92.10
2019-03-11T00:10:24.449Z,92.10
2019-03-11T00:12:52.734Z,90.00
2019-03-11T00:15:21.076Z,88.80
2019-03-11T00:17:49.739Z,87.40
2019-03-11T00:20:18.340Z,84.60
2019-03-11T00:22:46.647Z,83.50
2019-03-11T00:25:14.911Z,82.10
2019-03-11T00:27:43.198Z,84.90
2019-03-11T00:30:13.399Z,84.30
2019-03-11T00:32:42.094Z,83.90
2019-03-11T00:35:10.780Z,81.30
2019-03-11T00:37:39.065Z,83.50
2019-03-11T00:40:12.971Z,84.60
2019-03-11T00:42:41.556Z,84.40
2019-03-11T00:45:14.852Z,85.70
2019-03-11T00:47:43.143Z,85.10
2019-03-11T00:50:13.391Z,86.30
2019-03-11T00:52:41.871Z,84.60
2019-03-11T00:55:11.534Z,84.50
2019-03-11T00:57:40.199Z,85.80
2019-03-11T01:00:25.108Z,82.10
2019-03-11T01:02:52.772Z,82.30
2019-03-11T01:05:21.051Z,83.70
2019-03-11T01:07:49.643Z,84.60
2019-03-11T01:10:18.233Z,84.00
2019-03-11T01:12:46.580Z,81.90
2019-03-11T01:15:15.303Z,82.60
2019-03-11T01:17:43.897Z,80.90
2019-03-11T01:20:12.931Z,81.00
2019-03-11T01:22:41.478Z,80.90
2019-03-11T01:25:11.409Z,80.80
2019-03-11T01:27:39.740Z,80.80
2019-03-11T01:30:14.129Z,82.60
2019-03-11T01:32:41.785Z,82.20
2019-03-11T01:35:10.975Z,81.80
2019-03-11T01:37:39.314Z,83.10
2019-03-11T01:40:10.799Z,84.20
2019-03-11T01:42:39.067Z,84.80
2019-03-11T01:45:13.610Z,83.60
2019-03-11T01:47:41.875Z,85.30
2019-03-11T01:50:13.279Z,84.90
2019-03-11T01:52:42.131Z,85.60
2019-03-11T01:55:13.952Z,83.80
2019-03-11T01:57:42.606Z,84.30
2019-03-11T02:00:17.112Z,84.30
2019-03-11T02:02:44.695Z,84.80
2019-03-11T02:05:12.987Z,84.60
2019-03-11T02:07:41.649Z,83.10
2019-03-11T02:10:18.480Z,83.10
2019-03-11T02:12:47.107Z,81.80
2019-03-11T02:15:16.930Z,82.10
2019-03-11T02:17:45.204Z,82.50
2019-03-11T02:20:15.858Z,82.50
2019-03-11T02:22:44.131Z,83.90
2019-03-11T02:25:12.919Z,81.80
2019-03-11T02:27:41.526Z,82.70
2019-03-11T02:30:12.880Z,82.70
2019-03-11T02:32:41.470Z,82.30
2019-03-11T02:35:10.043Z,81.60
2019-03-11T02:37:38.723Z,81.70
2019-03-11T02:40:11.981Z,80.60
2019-03-11T02:42:40.304Z,80.10
2019-03-11T02:45:10.112Z,80.90
2019-03-11T02:47:38.735Z,81.70
2019-03-11T02:50:09.339Z,83.40
2019-03-11T02:52:38.042Z,82.50
2019-03-11T02:55:07.292Z,82.90
2019-03-11T02:57:36.146Z,83.20
2019-03-11T03:00:08.417Z,83.30
2019-03-11T03:02:44.666Z,82.50
2019-03-11T03:05:14.587Z,81.50
2019-03-11T03:07:43.197Z,80.50
2019-03-11T03:10:12.968Z,80.30
2019-03-11T03:12:41.239Z,81.90
2019-03-11T03:15:10.313Z,81.70
2019-03-11T03:17:38.600Z,81.20
2019-03-11T03:20:09.991Z,82.70
2019-03-11T03:22:38.265Z,82.50
2019-03-11T03:25:09.125Z,83.00
2019-03-11T03:27:37.553Z,83.20
2019-03-11T03:30:15.098Z,83.40
2019-03-11T03:32:43.789Z,83.00
2019-03-11T03:35:12.423Z,83.40
2019-03-11T03:37:40.774Z,83.40
2019-03-11T03:40:11.784Z,83.70
2019-03-11T03:42:40.585Z,83.60
2019-03-11T03:45:19.906Z,84.20
2019-03-11T03:47:48.179Z,83.70
2019-03-11T03:50:18.745Z,83.80
2019-03-11T03:52:47.079Z,82.70
2019-03-11T03:55:15.372Z,82.20
2019-03-11T03:57:43.995Z,83.00
2019-03-11T04:00:31.712Z,83.50
2019-03-11T04:03:00.406Z,81.80
2019-03-11T04:05:28.767Z,80.90
2019-03-11T04:07:57.035Z,83.00
2019-03-11T04:10:26.769Z,82.60
2019-03-11T04:12:55.038Z,82.80
2019-03-11T04:15:23.650Z,83.90
2019-03-11T04:17:52.246Z,82.90
2019-03-11T04:20:23.038Z,83.40
2019-03-11T04:22:51.308Z,83.80
2019-03-11T04:25:19.959Z,85.30
2019-03-11T04:27:48.655Z,87.00
2019-03-11T04:30:19.616Z,90.00
2019-03-11T04:32:47.960Z,92.00
2019-03-11T04:35:16.551Z,92.90
2019-03-11T04:37:45.139Z,93.90
2019-03-11T04:40:14.551Z,94.70
2019-03-11T04:42:42.843Z,95.10
2019-03-11T04:45:13.051Z,95.30
2019-03-11T04:47:41.643Z,95.70
2019-03-11T04:50:14.827Z,96.30
2019-03-11T04:52:43.428Z,96.60
2019-03-11T04:55:18.211Z,96.90
2019-03-11T04:57:53.876Z,97.10
2019-03-11T05:00:25.798Z,96.90
2019-03-11T05:02:54.365Z,97.30
2019-03-11T05:05:23.047Z,97.50
2019-03-11T05:07:51.638Z,97.60
2019-03-11T05:10:20.071Z,97.70
2019-03-11T05:12:48.423Z,98.00
2019-03-11T05:15:17.019Z,97.90
2019-03-11T05:17:45.387Z,97.90
2019-03-11T05:20:14.773Z,98.30
2019-03-11T05:22:43.372Z,98.30
2019-03-11T05:25:12.779Z,98.70
2019-03-11T05:27:41.363Z,98.60
2019-03-11T05:30:15.283Z,98.70
2019-03-11T05:32:43.640Z,99.30
2019-03-11T05:35:12.252Z,99.30
2019-03-11T05:37:40.621Z,98.90
2019-03-11T05:40:16.584Z,99.00
2019-03-11T05:42:45.167Z,98.80
2019-03-11T05:45:19.550Z,99.10
2019-03-11T05:47:47.223Z,99.40
2019-03-11T05:50:17.978Z,99.50
2019-03-11T05:52:46.369Z,97.90
2019-03-11T05:55:14.717Z,97.20
2019-03-11T05:57:43.050Z,94.40
2019-03-11T06:00:25.704Z,94.30
2019-03-11T06:02:54.340Z,94.50
2019-03-11T06:05:22.679Z,94.40
2019-03-11T06:07:50.964Z,94.40
2019-03-11T06:10:20.680Z,94.60
2019-03-11T06:12:48.966Z,93.50
2019-03-11T06:15:17.236Z,92.80
2019-03-11T06:17:45.616Z,92.80
2019-03-11T06:20:31.171Z,92.30
2019-03-11T06:23:00.734Z,92.60
2019-03-11T06:25:29.446Z,93.50
2019-03-11T06:27:58.131Z,93.40
2019-03-11T06:30:28.008Z,92.90
2019-03-11T06:32:56.426Z,92.80
2019-03-11T06:35:24.719Z,92.40
2019-03-11T06:37:53.007Z,93.50
2019-03-11T06:40:21.587Z,93.50
2019-03-11T06:42:50.178Z,93.90
2019-03-11T06:45:18.859Z,94.30
2019-03-11T06:47:47.147Z,93.40
2019-03-11T06:50:15.655Z,93.20
2019-03-11T06:52:43.947Z,93.30
2019-03-11T06:55:12.553Z,92.90
2019-03-11T06:57:40.841Z,91.20
2019-03-11T07:00:15.208Z,92.10
2019-03-11T07:02:43.571Z,91.00
2019-03-11T07:05:19.848Z,91.60
2019-03-11T07:07:42.195Z,90.20
2019-03-11T07:10:22.730Z,90.10
2019-03-11T07:12:51.019Z,91.50
2019-03-11T07:15:19.543Z,92.40
2019-03-11T07:17:47.831Z,92.50
2019-03-11T07:20:17.347Z,92.80
2019-03-11T07:22:45.640Z,92.90
2019-03-11T07:25:14.280Z,93.50
2019-03-11T07:27:42.881Z,92.80
2019-03-11T07:30:14.479Z,92.90
2019-03-11T07:32:43.119Z,92.50
2019-03-11T07:35:11.712Z,92.60
2019-03-11T07:37:39.999Z,91.90
2019-03-11T07:40:12.787Z,91.90
2019-03-11T07:42:41.360Z,91.00
2019-03-11T07:45:11.437Z,91.70
2019-03-11T07:47:39.799Z,91.10
2019-03-11T07:50:09.659Z,92.20
2019-03-11T07:52:37.927Z,91.10
2019-03-11T07:55:11.467Z,90.30
2019-03-11T07:57:40.157Z,87.60
2019-03-11T08:00:12.019Z,86.50
2019-03-11T08:02:40.603Z,86.60
2019-03-11T08:05:10.012Z,89.30
2019-03-11T08:07:38.597Z,87.00
2019-03-11T08:10:16.191Z,87.00
2019-03-11T08:12:44.475Z,86.30
2019-03-11T08:15:13.882Z,87.50
2019-03-11T08:17:42.227Z,85.60
2019-03-11T08:20:14.240Z,83.00
2019-03-11T08:22:42.572Z,84.10
2019-03-11T08:25:11.985Z,82.20
2019-03-11T08:27:40.607Z,85.70
2019-03-11T08:30:21.477Z,81.10
2019-03-11T08:32:49.735Z,79.60
2019-03-11T08:35:18.339Z,79.00
2019-03-11T08:37:46.615Z,79.90
2019-03-11T08:40:19.872Z,79.20
2019-03-11T08:42:48.510Z,76.80
2019-03-11T08:45:19.940Z,77.60
2019-03-11T08:47:48.552Z,75.50
2019-03-11T08:50:16.986Z,73.10
2019-03-11T08:52:45.254Z,70.90
2019-03-11T08:55:13.955Z,66.60
2019-03-11T08:57:42.498Z,64.00
2019-03-11T09:00:21.424Z,63.20
2019-03-11T09:02:49.761Z,63.10
2019-03-11T09:05:18.127Z,63.30
2019-03-11T09:07:46.468Z,60.40
2019-03-11T09:10:19.273Z,60.20
2019-03-11T09:12:47.635Z,61.00
2019-03-11T09:15:18.020Z,61.90
2019-03-11T09:17:46.285Z,61.10
2019-03-11T09:20:15.791Z,65.80
2019-03-11T09:22:44.055Z,68.20
2019-03-11T09:25:15.043Z,67.10
2019-03-11T09:27:43.312Z,66.80
2019-03-11T09:30:17.566Z,66.70
2019-03-11T09:32:46.155Z,65.60
2019-03-11T09:35:14.445Z,65.60
2019-03-11T09:37:42.710Z,66.00
2019-03-11T09:40:14.175Z,69.20
2019-03-11T09:42:42.767Z,70.50
2019-03-11T09:45:13.758Z,73.90
2019-03-11T09:47:42.029Z,72.00
2019-03-11T09:50:14.915Z,69.90
2019-03-11T09:52:43.188Z,72.20
2019-03-11T09:55:14.611Z,75.30
2019-03-11T09:57:42.887Z,79.50
2019-03-11T10:00:19.056Z,76.60
2019-03-11T10:02:52.270Z,77.60
2019-03-11T10:05:17.359Z,74.60
2019-03-11T10:07:45.975Z,70.40
2019-03-11T10:10:17.983Z,67.50
2019-03-11T10:12:46.250Z,62.40
2019-03-11T10:15:21.415Z,63.80
2019-03-11T10:17:50.015Z,64.30
2019-03-11T10:20:20.042Z,63.60
2019-03-11T10:22:48.375Z,63.70
2019-03-11T10:25:17.399Z,62.20
2019-03-11T10:27:46.004Z,62.60
2019-03-11T10:30:24.521Z,58.60
2019-03-11T10:32:53.107Z,59.30
2019-03-11T10:35:36.872Z,57.40
2019-03-11T10:37:51.559Z,56.80
2019-03-11T10:40:27.331Z,59.90
2019-03-11T10:42:55.667Z,58.90
2019-03-11T10:45:31.248Z,59.10
2019-03-11T10:47:53.943Z,57.60
2019-03-11T10:50:23.334Z,57.60
2019-03-11T10:52:51.590Z,60.40
2019-03-11T10:55:22.270Z,64.60
2019-03-11T10:57:50.539Z,61.50
2019-03-11T11:00:28.959Z,61.40
2019-03-11T11:02:57.295Z,67.80
2019-03-11T11:05:25.582Z,64.20
2019-03-11T11:07:54.116Z,62.90
2019-03-11T11:10:22.707Z,64.10
2019-03-11T11:12:51.292Z,62.00
2019-03-11T11:15:22.432Z,57.90
2019-03-11T11:17:50.695Z,61.80
2019-03-11T11:20:19.938Z,65.40
2019-03-11T11:22:48.816Z,63.30
2019-03-11T11:25:30.172Z,60.70
2019-03-11T11:27:58.780Z,65.10
2019-03-11T11:30:28.378Z,61.40
2019-03-11T11:32:56.985Z,61.80
2019-03-11T11:35:25.254Z,61.70
2019-03-11T11:37:53.550Z,62.00
2019-03-11T11:40:25.794Z,58.30
2019-03-11T11:42:54.403Z,58.20
2019-03-11T11:45:24.966Z,59.90
2019-03-11T11:47:53.527Z,59.10
2019-03-11T11:50:22.631Z,59.00
2019-03-11T11:52:51.216Z,60.50
2019-03-11T11:55:23.083Z,61.40
2019-03-11T11:57:51.438Z,62.00
2019-03-11T12:00:36.931Z,60.60
2019-03-11T12:03:05.224Z,61.90
2019-03-11T12:05:35.134Z,63.80
2019-03-11T12:08:03.416Z,64.00
2019-03-11T12:10:33.008Z,66.10
2019-03-11T12:13:01.726Z,66.70
2019-03-11T12:15:30.067Z,65.60
2019-03-11T12:17:58.422Z,67.20
2019-03-11T12:20:28.889Z,68.00
2019-03-11T12:22:57.603Z,70.30
2019-03-11T12:25:26.112Z,70.50
2019-03-11T12:27:54.989Z,68.70
2019-03-11T12:30:28.175Z,71.30
2019-03-11T12:32:56.470Z,69.10
2019-03-11T12:35:25.148Z,68.10
2019-03-11T12:37:53.599Z,68.00
2019-03-11T12:40:21.863Z,65.20
2019-03-11T12:42:50.147Z,64.90
2019-03-11T12:45:20.613Z,64.50
2019-03-11T12:47:48.912Z,67.80
2019-03-11T12:50:28.754Z,67.00
2019-03-11T12:52:57.446Z,66.90
2019-03-11T12:55:27.051Z,67.10
2019-03-11T12:57:55.339Z,67.30
2019-03-11T13:00:24.520Z,65.70
2019-03-11T13:02:52.922Z,62.30
2019-03-11T13:05:21.215Z,58.10
2019-03-11T13:07:49.503Z,58.40
2019-03-11T13:10:20.375Z,59.60
2019-03-11T13:12:49.007Z,64.50
2019-03-11T13:15:17.448Z,68.00
2019-03-11T13:17:46.088Z,67.40
2019-03-11T13:20:20.020Z,68.20
2019-03-11T13:22:50.643Z,68.80
2019-03-11T13:25:19.015Z,70.30
2019-03-11T13:27:47.612Z,71.00
2019-03-11T13:30:16.643Z,72.20
2019-03-11T13:32:44.935Z,74.90
2019-03-11T13:35:14.188Z,79.30
2019-03-11T13:37:42.546Z,84.20
2019-03-11T13:40:12.507Z,88.30
2019-03-11T13:42:41.076Z,90.70
2019-03-11T13:45:11.940Z,90.90
2019-03-11T13:47:40.233Z,90.00
2019-03-11T13:50:10.635Z,91.60
2019-03-11T13:52:39.216Z,90.70
2019-03-11T13:55:10.522Z,91.30
2019-03-11T13:57:39.358Z,83.90
2019-03-11T14:00:16.435Z,87.10
2019-03-11T14:02:45.136Z,85.90
2019-03-11T14:05:15.043Z,87.20
2019-03-11T14:07:43.335Z,88.30
2019-03-11T14:10:14.069Z,85.60
2019-03-11T14:12:42.659Z,83.70
2019-03-11T14:15:22.668Z,85.90
2019-03-11T14:17:50.974Z,85.00
2019-03-11T14:20:19.301Z,82.00
2019-03-11T14:22:47.757Z,85.00
2019-03-11T14:25:16.341Z,79.80
2019-03-11T14:27:44.698Z,77.20
2019-03-11T14:30:18.154Z,74.20
2019-03-11T14:32:46.809Z,78.30
2019-03-11T14:35:15.072Z,76.80
2019-03-11T14:37:43.359Z,78.70
2019-03-11T14:40:16.966Z,79.10
2019-03-11T14:42:45.323Z,75.50
2019-03-11T14:45:18.631Z,76.40
2019-03-11T14:47:46.919Z,70.00
2019-03-11T14:50:16.464Z,65.40
2019-03-11T14:52:44.733Z,61.90
2019-03-11T14:55:17.397Z,60.20
2019-03-11T14:57:46.103Z,63.00
2019-03-11T15:00:18.912Z,67.60
2019-03-11T15:02:47.575Z,67.20
2019-03-11T15:05:17.073Z,70.10
2019-03-11T15:07:45.510Z,70.90
2019-03-11T15:10:14.939Z,71.60
2019-03-11T15:12:43.564Z,73.00
2019-03-11T15:15:14.291Z,73.40
2019-03-11T15:17:42.559Z,72.80
2019-03-11T15:20:11.076Z,71.00
2019-03-11T15:22:39.427Z,73.20
2019-03-11T15:25:10.053Z,73.00
2019-03-11T15:27:38.672Z,72.40
2019-03-11T15:30:16.170Z,72.40
2019-03-11T15:32:44.431Z,72.80
2019-03-11T15:35:14.147Z,74.80
2019-03-11T15:37:42.917Z,73.80
2019-03-11T15:40:18.267Z,73.60
2019-03-11T15:42:46.888Z,75.50
2019-03-11T15:45:20.131Z,74.50
2019-03-11T15:47:48.769Z,74.10
2019-03-11T15:50:31.170Z,74.80
2019-03-11T15:52:59.754Z,74.90
2019-03-11T15:55:29.781Z,75.60
2019-03-11T15:57:58.044Z,76.60
2019-03-11T16:00:26.340Z,76.40
2019-03-11T16:02:54.607Z,76.40
2019-03-11T16:05:26.479Z,76.20
2019-03-11T16:07:55.073Z,77.40
2019-03-11T16:10:23.443Z,77.50
2019-03-11T16:12:51.776Z,79.70
2019-03-11T16:15:20.131Z,81.30
2019-03-11T16:17:48.404Z,84.20
2019-03-11T16:20:21.009Z,84.30
2019-03-11T16:22:49.342Z,84.50
2019-03-11T16:25:17.644Z,85.60
2019-03-11T16:27:46.335Z,84.30
2019-03-11T16:30:26.079Z,86.00
2019-03-11T16:32:59.924Z,86.40
2019-03-11T16:35:27.753Z,85.80
2019-03-11T16:37:56.348Z,86.30
2019-03-11T16:40:24.708Z,84.70
2019-03-11T16:42:52.975Z,84.20
2019-03-11T16:45:21.803Z,84.30
2019-03-11T16:47:50.063Z,84.90
2019-03-11T16:50:23.996Z,84.20
2019-03-11T16:52:52.694Z,84.60
2019-03-11T16:55:29.871Z,84.00
2019-03-11T16:57:58.203Z,84.20
2019-03-11T17:00:31.246Z,83.20
2019-03-11T17:02:59.931Z,83.80
2019-03-11T17:05:29.390Z,83.20
2019-03-11T17:07:57.803Z,81.30
2019-03-11T17:10:27.431Z,82.00
2019-03-11T17:12:55.695Z,81.60
2019-03-11T17:15:24.303Z,82.00
2019-03-11T17:17:52.647Z,82.40
2019-03-11T17:20:20.944Z,82.70
2019-03-11T17:22:49.280Z,82.40
2019-03-11T17:25:17.943Z,82.50
2019-03-11T17:27:46.282Z,81.80
2019-03-11T17:30:38.319Z,81.90
2019-03-11T17:33:06.588Z,82.00
2019-03-11T17:35:37.551Z,82.30
2019-03-11T17:38:05.120Z,80.70
2019-03-11T17:40:34.622Z,81.30
2019-03-11T17:43:02.906Z,80.30
2019-03-11T17:45:31.620Z,81.30
2019-03-11T17:48:00.199Z,81.50
2019-03-11T17:50:28.490Z,81.50
2019-03-11T17:52:56.752Z,81.30
2019-03-11T17:55:25.047Z,82.00
2019-03-11T17:57:53.627Z,81.50
2019-03-11T18:00:25.688Z,81.70
2019-03-11T18:02:54.495Z,81.40
2019-03-11T18:05:22.858Z,81.20
2019-03-11T18:07:51.464Z,82.20
2019-03-11T18:10:19.751Z,81.70
2019-03-11T18:12:48.027Z,81.70
2019-03-11T18:15:16.387Z,81.60
2019-03-11T18:17:45.001Z,81.10
2019-03-11T18:20:16.967Z,82.10
2019-03-11T18:22:45.651Z,81.70
2019-03-11T18:25:15.979Z,82.20
2019-03-11T18:27:44.316Z,81.50
2019-03-11T18:30:15.737Z,82.20
2019-03-11T18:32:44.070Z,82.00
2019-03-11T18:35:12.422Z,82.40
2019-03-11T18:37:40.996Z,82.00
2019-03-11T18:40:12.128Z,81.00
2019-03-11T18:42:40.808Z,81.00
2019-03-11T18:45:10.684Z,81.10
2019-03-11T18:47:39.334Z,80.90
2019-03-11T18:50:10.591Z,80.50
2019-03-11T18:52:39.257Z,80.50
2019-03-11T18:55:08.420Z,81.50
2019-03-11T18:57:37.064Z,81.40
2019-03-11T19:00:16.242Z,81.30
2019-03-11T19:02:44.864Z,81.90
2019-03-11T19:05:15.711Z,82.40
2019-03-11T19:07:44.435Z,82.20
2019-03-11T19:10:15.229Z,82.50
2019-03-11T19:12:43.603Z,81.90
2019-03-11T19:15:17.381Z,82.30
2019-03-11T19:17:45.738Z,82.30
2019-03-11T19:20:19.822Z,81.60
2019-03-11T19:22:48.525Z,81.70
2019-03-11T19:25:17.221Z,81.70
2019-03-11T19:27:47.019Z,82.30
2019-03-11T19:30:19.752Z,81.60
2019-03-11T19:32:48.106Z,81.30
2019-03-11T19:35:16.913Z,81.20
2019-03-11T19:37:45.213Z,80.40
2019-03-11T19:40:27.274Z,80.30
2019-03-11T19:42:55.578Z,80.10
2019-03-11T19:45:24.259Z,79.70
2019-03-11T19:47:52.644Z,79.80
2019-03-11T19:50:22.145Z,80.40
2019-03-11T19:52:58.409Z,81.10
2019-03-11T19:55:21.642Z,81.60
2019-03-11T19:57:50.275Z,82.60
2019-03-11T20:00:28.041Z,83.70
2019-03-11T20:02:56.537Z,84.40
2019-03-11T20:05:29.508Z,86.00
2019-03-11T20:07:58.195Z,86.20
2019-03-11T20:10:27.636Z,86.80
2019-03-11T20:12:56.334Z,87.80
2019-03-11T20:15:24.981Z,88.90
2019-03-11T20:17:53.385Z,89.30
2019-03-11T20:20:21.765Z,90.20
2019-03-11T20:22:50.870Z,90.20
2019-03-11T20:25:24.768Z,90.40
2019-03-11T20:27:53.424Z,90.90
2019-03-11T20:30:23.211Z,90.80
2019-03-11T20:32:51.704Z,90.80
2019-03-11T20:35:20.092Z,91.20
2019-03-11T20:37:48.714Z,91.20
2019-03-11T20:40:17.417Z,92.10
2019-03-11T20:42:45.837Z,91.90
2019-03-11T20:45:18.589Z,92.60
2019-03-11T20:47:46.880Z,93.50
2019-03-11T20:50:16.279Z,93.40
2019-03-11T20:52:44.960Z,93.40
2019-03-11T20:55:15.746Z,93.40
2019-03-11T20:57:44.375Z,93.80
2019-03-11T21:00:29.596Z,94.30
2019-03-11T21:03:00.065Z,93.60
2019-03-11T21:05:39.949Z,93.70
2019-03-11T21:08:27.699Z,93.70
2019-03-11T21:10:56.340Z,93.60
2019-03-11T21:13:24.677Z,93.10
2019-03-11T21:15:53.315Z,93.40
2019-03-11T21:18:24.644Z,93.00
2019-03-11T21:21:04.077Z,93.60
2019-03-11T21:23:26.109Z,93.20
2019-03-11T21:25:56.546Z,92.70
2019-03-11T21:28:25.039Z,92.20
2019-03-11T21:30:53.758Z,92.60
2019-03-11T21:33:22.517Z,92.60
2019-03-11T21:35:51.219Z,92.80
2019-03-11T21:38:19.630Z,92.50
2019-03-11T21:40:47.922Z,93.10
2019-03-11T21:43:16.206Z,93.00
2019-03-11T21:45:44.761Z,93.20
2019-03-11T21:48:13.466Z,94.10
2019-03-11T21:50:42.066Z,93.80
2019-03-11T21:53:10.432Z,95.20
2019-03-11T21:55:39.049Z,93.60
2019-03-11T21:58:13.059Z,93.70
2019-03-11T22:00:38.024Z,93.80
2019-03-11T22:03:06.389Z,93.50
2019-03-11T22:05:34.672Z,92.70
2019-03-11T22:08:03.279Z,92.20
2019-03-11T22:10:31.543Z,93.00
2019-03-11T22:13:00.148Z,92.50
2019-03-11T22:15:28.884Z,92.20
2019-03-11T22:17:57.199Z,93.00
2019-03-11T22:20:25.486Z,93.10
2019-03-11T22:22:53.747Z,93.60
2019-03-11T22:25:22.475Z,92.40
2019-03-11T22:27:50.734Z,93.00
2019-03-11T22:30:20.419Z,93.00
2019-03-11T22:32:48.729Z,92.50
2019-03-11T22:35:17.048Z,91.90
2019-03-11T22:37:45.391Z,92.20
2019-03-11T22:40:16.060Z,93.30
2019-03-11T22:42:44.464Z,92.40
2019-03-11T22:45:17.070Z,92.80
2019-03-11T22:47:45.476Z,93.40
2019-03-11T22:50:13.759Z,93.50
2019-03-11T22:52:42.027Z,93.50
2019-03-11T22:55:11.262Z,93.40
2019-03-11T22:57:39.523Z,92.60
2019-03-11T23:00:26.731Z,93.20
2019-03-11T23:02:55.064Z,93.40
2019-03-11T23:05:23.427Z,94.30
2019-03-11T23:07:58.729Z,94.20
2019-03-11T23:10:27.020Z,94.00
2019-03-11T23:12:55.286Z,94.10
2019-03-11T23:15:23.572Z,93.90
2019-03-11T23:17:51.907Z,93.00
2019-03-11T23:20:20.191Z,91.70
2019-03-11T23:22:48.451Z,91.80
2019-03-11T23:25:16.741Z,91.60
2019-03-11T23:27:45.320Z,90.70
2019-03-11T23:30:14.804Z,90.20
2019-03-11T23:32:43.515Z,88.90
2019-03-11T23:35:12.153Z,87.50
2019-03-11T23:37:40.451Z,87.50
2019-03-11T23:40:09.675Z,88.10
2019-03-11T23:42:38.286Z,88.30
2019-03-11T23:45:08.578Z,89.90
2019-03-11T23:47:36.842Z,89.10
2019-03-11T23:50:12.123Z,89.60
2019-03-11T23:52:40.719Z,90.20
2019-03-11T23:55:10.420Z,90.40
2019-03-11T23:57:40.043Z,90.80
